createdAt,value
2018-09-14T00:02:25.883Z,9.40
2018-09-14T00:04:54.121Z,8.75
2018-09-14T00:07:22.379Z,9.30
2018-09-14T00:09:51.616Z,9.88
2018-09-14T00:12:19.830Z,9.45
2018-09-14T00:14:48.049Z,9.28
2018-09-14T00:17:16.243Z,9.28
2018-09-14T00:19:44.484Z,10.18
2018-09-14T00:22:12.669Z,9.15
2018-09-14T00:24:40.878Z,10.50
2018-09-14T00:27:09.174Z,10.93
2018-09-14T00:29:37.479Z,10.70
2018-09-14T00:32:05.700Z,10.08
2018-09-14T00:34:33.959Z,10.60
2018-09-14T00:37:02.163Z,10.43
2018-09-14T00:39:30.380Z,9.53
2018-09-14T00:41:58.571Z,9.50
2018-09-14T00:44:26.756Z,9.00
2018-09-14T00:46:54.940Z,8.35
2018-09-14T00:49:23.130Z,9.53
2018-09-14T00:51:51.334Z,9.00
2018-09-14T00:54:19.547Z,9.85
2018-09-14T00:56:47.734Z,8.95
2018-09-14T00:59:15.926Z,8.05
2018-09-14T01:01:44.089Z,8.60
2018-09-14T01:04:12.300Z,7.83
2018-09-14T01:06:40.496Z,7.25
2018-09-14T01:09:13.284Z,7.37
2018-09-14T01:11:41.884Z,7.28
2018-09-14T01:14:10.078Z,7.67
2018-09-14T01:16:38.289Z,7.25
2018-09-14T01:19:06.495Z,6.90
2018-09-14T01:21:34.702Z,7.05
2018-09-14T01:24:02.887Z,7.28
2018-09-14T01:26:31.107Z,6.42
2018-09-14T01:28:59.296Z,7.65
2018-09-14T01:31:27.544Z,6.55
2018-09-14T01:33:55.719Z,6.50
2018-09-14T01:36:23.906Z,6.12
2018-09-14T01:38:52.087Z,5.85
2018-09-14T01:41:20.290Z,5.85
2018-09-14T01:43:48.471Z,5.10
2018-09-14T01:46:16.651Z,5.37
2018-09-14T01:48:44.847Z,5.12
2018-09-14T01:51:13.050Z,5.20
2018-09-14T01:53:41.259Z,4.85
2018-09-14T01:56:09.473Z,4.87
2018-09-14T01:58:37.652Z,5.45
2018-09-14T02:01:05.878Z,4.75
2018-09-14T02:03:34.133Z,5.25
2018-09-14T02:06:02.272Z,5.37
2018-09-14T02:08:30.432Z,5.37
2018-09-14T02:10:58.632Z,5.37
2018-09-14T02:13:26.810Z,5.83
2018-09-14T02:15:54.994Z,4.83
2018-09-14T02:18:23.183Z,5.95
2018-09-14T02:20:51.363Z,5.33
2018-09-14T02:23:19.535Z,5.50
2018-09-14T02:25:47.724Z,6.30
2018-09-14T02:28:15.929Z,6.08
2018-09-14T02:30:44.105Z,6.40
2018-09-14T02:33:12.287Z,5.92
2018-09-14T02:35:40.481Z,5.65
2018-09-14T02:38:08.675Z,5.37
2018-09-14T02:40:36.872Z,6.53
2018-09-14T02:43:05.086Z,6.70
2018-09-14T02:45:33.353Z,7.80
2018-09-14T02:48:01.573Z,7.47
2018-09-14T02:50:29.751Z,7.12
2018-09-14T02:52:57.935Z,6.60
2018-09-14T02:55:26.116Z,6.50
2018-09-14T02:57:54.316Z,6.20
2018-09-14T03:00:22.516Z,6.33
2018-09-14T03:02:50.695Z,6.50
2018-09-14T03:05:18.875Z,6.75
2018-09-14T03:07:47.068Z,6.35
2018-09-14T03:10:15.287Z,6.40
2018-09-14T03:12:43.488Z,5.83
2018-09-14T03:15:11.698Z,6.40
2018-09-14T03:17:39.890Z,7.00
2018-09-14T03:20:08.081Z,6.25
2018-09-14T03:22:36.277Z,6.92
2018-09-14T03:25:04.481Z,6.17
2018-09-14T03:27:32.784Z,6.60
2018-09-14T03:30:00.964Z,7.50
2018-09-14T03:32:29.181Z,7.55
2018-09-14T03:34:57.355Z,7.80
2018-09-14T03:37:25.586Z,7.37
2018-09-14T03:39:53.788Z,7.37
2018-09-14T03:42:22.435Z,7.90
2018-09-14T03:44:50.814Z,7.22
2018-09-14T03:47:19.014Z,7.92
2018-09-14T03:49:47.188Z,6.92
2018-09-14T03:52:15.361Z,7.65
2018-09-14T03:54:43.568Z,7.10
2018-09-14T03:57:11.786Z,7.45
2018-09-14T03:59:39.965Z,6.92
2018-09-14T04:02:08.272Z,7.58
2018-09-14T04:04:36.981Z,6.53
2018-09-14T04:07:05.215Z,6.58
2018-09-14T04:09:33.444Z,6.85
2018-09-14T04:12:01.654Z,7.22
2018-09-14T04:14:29.847Z,8.23
2018-09-14T04:16:58.056Z,8.40
2018-09-14T04:19:26.271Z,9.00
2018-09-14T04:21:54.478Z,8.13
2018-09-14T04:24:22.672Z,9.40
2018-09-14T04:26:50.918Z,9.75
2018-09-14T04:29:19.131Z,9.53
2018-09-14T04:31:47.355Z,8.45
2018-09-14T04:34:15.554Z,7.20
2018-09-14T04:36:43.736Z,7.22
2018-09-14T04:39:11.941Z,7.65
2018-09-14T04:41:40.255Z,7.35
2018-09-14T04:44:08.438Z,7.45
2018-09-14T04:46:36.635Z,7.47
2018-09-14T04:49:04.875Z,7.58
2018-09-14T04:51:33.128Z,6.95
2018-09-14T04:54:01.300Z,6.90
2018-09-14T04:56:29.511Z,7.67
2018-09-14T04:58:57.703Z,7.25
2018-09-14T05:01:25.924Z,10.55
2018-09-14T05:03:54.096Z,11.10
2018-09-14T05:06:22.292Z,9.60
2018-09-14T05:08:50.483Z,8.20
2018-09-14T05:11:18.674Z,8.20
2018-09-14T05:13:46.906Z,9.33
2018-09-14T05:16:15.115Z,9.20
2018-09-14T05:18:43.314Z,8.68
2018-09-14T05:21:11.619Z,9.45
2018-09-14T05:23:39.841Z,10.25
2018-09-14T05:26:08.092Z,10.32
2018-09-14T05:28:36.303Z,12.70
2018-09-14T05:31:04.571Z,11.93
2018-09-14T05:33:32.763Z,14.15
2018-09-14T05:36:00.962Z,14.43
2018-09-14T05:38:29.149Z,15.20
2018-09-14T05:40:57.352Z,15.50
2018-09-14T05:43:25.549Z,16.65
2018-09-14T05:45:53.846Z,16.23
2018-09-14T05:48:21.946Z,17.62
2018-09-14T05:50:50.160Z,16.82
2018-09-14T05:53:18.360Z,18.20
2018-09-14T05:55:46.590Z,17.25
2018-09-14T05:58:14.780Z,17.67
2018-09-14T06:00:43.010Z,17.32
2018-09-14T06:03:11.218Z,17.17
2018-09-14T06:05:39.419Z,14.63
2018-09-14T06:08:07.634Z,18.35
2018-09-14T06:10:35.847Z,16.30
2018-09-14T06:13:04.047Z,15.23
2018-09-14T06:15:32.243Z,18.10
2018-09-14T06:18:00.466Z,16.55
2018-09-14T06:20:28.656Z,17.80
2018-09-14T06:22:56.928Z,15.45
2018-09-14T06:25:25.064Z,15.65
2018-09-14T06:27:53.265Z,18.12
2018-09-14T06:30:21.529Z,17.55
2018-09-14T06:32:49.711Z,17.55
2018-09-14T06:35:17.921Z,16.48
2018-09-14T06:37:46.127Z,16.50
2018-09-14T06:40:14.345Z,15.95
2018-09-14T06:42:42.575Z,16.00
2018-09-14T06:45:10.842Z,17.92
2018-09-14T06:47:39.063Z,17.85
2018-09-14T06:50:07.246Z,18.57
2018-09-14T06:52:35.466Z,17.45
2018-09-14T06:55:03.693Z,19.27
2018-09-14T06:57:31.890Z,18.62
2018-09-14T07:00:00.112Z,18.20
2018-09-14T07:02:28.861Z,16.32
2018-09-14T07:04:57.420Z,18.98
2018-09-14T07:07:25.608Z,20.08
2018-09-14T07:09:53.799Z,16.23
2018-09-14T07:12:22.024Z,17.23
2018-09-14T07:14:50.220Z,16.65
2018-09-14T07:17:18.453Z,19.65
2018-09-14T07:19:46.663Z,19.23
2018-09-14T07:22:14.906Z,17.30
2018-09-14T07:24:43.100Z,19.85
2018-09-14T07:27:11.256Z,18.20
2018-09-14T07:29:39.440Z,18.02
2018-09-14T07:32:07.859Z,19.40
2018-09-14T07:34:36.039Z,21.05
2018-09-14T07:37:04.233Z,20.82
2018-09-14T07:39:32.451Z,19.92
2018-09-14T07:42:00.642Z,17.15
2018-09-14T07:44:28.879Z,20.55
2018-09-14T07:46:57.084Z,18.77
2018-09-14T07:49:25.295Z,21.52
2018-09-14T07:51:53.527Z,21.93
2018-09-14T07:54:21.750Z,22.30
2018-09-14T07:56:49.946Z,21.52
2018-09-14T07:59:18.140Z,22.17
2018-09-14T08:01:46.373Z,22.00
2018-09-14T08:04:14.659Z,21.15
2018-09-14T08:06:42.859Z,28.57
2018-09-14T08:09:12.591Z,22.85
2018-09-14T08:11:40.845Z,25.90
2018-09-14T08:14:09.597Z,26.57
2018-09-14T08:16:37.803Z,26.80
2018-09-14T08:19:06.430Z,29.52
2018-09-14T08:21:34.912Z,32.30
2018-09-14T08:24:03.030Z,28.52
2018-09-14T08:26:31.364Z,27.62
2018-09-14T08:28:59.567Z,27.60
2018-09-14T08:31:27.744Z,28.45
2018-09-14T08:33:55.968Z,28.40
2018-09-14T08:36:24.159Z,30.00
2018-09-14T08:39:02.707Z,30.90
2018-09-14T08:41:30.938Z,30.25
2018-09-14T08:43:59.158Z,31.42
2018-09-14T08:46:27.333Z,29.02
2018-09-14T08:48:55.512Z,28.55
2018-09-14T08:51:23.743Z,29.40
2018-09-14T08:53:51.968Z,28.62
2018-09-14T08:56:20.156Z,28.85
2018-09-14T08:58:48.650Z,28.25
2018-09-14T09:01:16.854Z,29.27
2018-09-14T09:03:45.073Z,31.10
2018-09-14T09:06:13.235Z,27.80
2018-09-14T09:08:41.425Z,26.65
2018-09-14T09:11:09.596Z,26.68
2018-09-14T09:13:37.777Z,29.60
2018-09-14T09:16:05.979Z,26.97
2018-09-14T09:18:34.234Z,26.40
2018-09-14T09:21:02.402Z,28.05
2018-09-14T09:23:30.704Z,25.32
2018-09-14T09:25:58.847Z,29.12
2018-09-14T09:28:27.139Z,27.32
2018-09-14T09:30:55.315Z,32.78
2018-09-14T09:33:23.503Z,30.70
2018-09-14T09:35:51.714Z,29.10
2018-09-14T09:38:19.894Z,31.50
2018-09-14T09:40:48.083Z,32.13
2018-09-14T09:43:16.303Z,29.27
2018-09-14T09:45:44.479Z,30.95
2018-09-14T09:48:12.664Z,31.93
2018-09-14T09:50:40.922Z,30.62
2018-09-14T09:53:09.040Z,31.45
2018-09-14T09:55:37.881Z,32.05
2018-09-14T09:58:06.168Z,33.15
2018-09-14T10:00:39.791Z,30.65
2018-09-14T10:03:13.492Z,31.42
2018-09-14T10:05:47.214Z,32.20
2018-09-14T10:08:15.464Z,28.42
2018-09-14T10:10:43.662Z,30.82
2018-09-14T10:13:11.871Z,30.68
2018-09-14T10:15:40.076Z,29.20
2018-09-14T10:18:08.288Z,31.07
2018-09-14T10:20:36.512Z,29.95
2018-09-14T10:23:04.693Z,29.25
2018-09-14T10:25:33.147Z,27.87
2018-09-14T10:28:01.318Z,26.80
2018-09-14T10:30:29.490Z,31.37
2018-09-14T10:32:57.797Z,30.00
2018-09-14T10:35:25.959Z,32.78
2018-09-14T10:37:54.154Z,26.40
2018-09-14T10:40:22.374Z,26.95
2018-09-14T10:42:50.686Z,30.68
2018-09-14T10:45:18.862Z,31.80
2018-09-14T10:47:46.996Z,28.87
2018-09-14T10:50:15.198Z,27.75
2018-09-14T10:52:43.395Z,26.02
2018-09-14T10:55:11.631Z,28.77
2018-09-14T10:57:39.747Z,29.25
2018-09-14T11:00:07.938Z,29.00
2018-09-14T11:02:36.168Z,29.05
2018-09-14T11:05:04.370Z,28.57
2018-09-14T11:07:32.588Z,29.65
2018-09-14T11:10:00.802Z,29.90
2018-09-14T11:12:29.020Z,28.60
2018-09-14T11:14:57.178Z,28.65
2018-09-14T11:17:25.431Z,27.90
2018-09-14T11:19:53.686Z,26.82
2018-09-14T11:22:21.994Z,26.23
2018-09-14T11:24:50.308Z,24.77
2018-09-14T11:27:18.451Z,23.80
2018-09-14T11:29:46.670Z,21.05
2018-09-14T11:32:14.928Z,21.42
2018-09-14T11:34:43.090Z,18.12
2018-09-14T11:37:11.324Z,16.48
2018-09-14T11:39:39.497Z,18.70
2018-09-14T11:42:07.714Z,18.70
2018-09-14T11:44:35.901Z,18.42
2018-09-14T11:47:04.127Z,18.82
2018-09-14T11:49:32.337Z,17.42
2018-09-14T11:52:00.566Z,18.15
2018-09-14T11:54:28.857Z,16.70
2018-09-14T11:56:57.122Z,15.35
2018-09-14T11:59:25.356Z,15.85
2018-09-14T12:01:53.938Z,15.72
2018-09-14T12:04:22.203Z,16.07
2018-09-14T12:06:50.523Z,14.03
2018-09-14T12:09:18.732Z,14.25
2018-09-14T12:11:46.920Z,14.75
2018-09-14T12:14:15.134Z,13.55
2018-09-14T12:16:43.340Z,13.95
2018-09-14T12:19:11.554Z,13.48
2018-09-14T12:21:39.796Z,13.25
2018-09-14T12:24:07.998Z,12.78
2018-09-14T12:26:36.184Z,13.28
2018-09-14T12:29:04.398Z,14.30
2018-09-14T12:31:32.614Z,12.98
2018-09-14T12:34:00.818Z,11.73
2018-09-14T12:36:29.025Z,10.23
2018-09-14T12:38:57.240Z,10.40
2018-09-14T12:41:25.610Z,12.13
2018-09-14T12:43:53.830Z,12.18
2018-09-14T12:46:22.035Z,12.03
2018-09-14T12:48:50.281Z,13.20
2018-09-14T12:51:18.464Z,12.33
2018-09-14T12:53:46.748Z,13.00
2018-09-14T12:56:14.967Z,13.50
2018-09-14T12:58:43.227Z,12.93
2018-09-14T13:01:11.473Z,12.03
2018-09-14T13:03:39.680Z,12.18
2018-09-14T13:06:07.885Z,10.90
2018-09-14T13:08:36.944Z,9.98
2018-09-14T13:11:05.447Z,11.33
2018-09-14T13:13:33.668Z,9.20
2018-09-14T13:16:01.840Z,8.23
2018-09-14T13:18:30.019Z,8.60
2018-09-14T13:20:58.227Z,8.13
2018-09-14T13:23:26.430Z,8.53
2018-09-14T13:25:55.210Z,10.20
2018-09-14T13:28:23.412Z,8.45
2018-09-14T13:30:51.615Z,9.28
2018-09-14T13:33:19.838Z,8.50
2018-09-14T13:35:48.054Z,9.05
2018-09-14T13:38:16.305Z,7.95
2018-09-14T13:40:44.633Z,8.98
2018-09-14T13:43:12.829Z,9.53
2018-09-14T13:45:41.040Z,9.00
2018-09-14T13:48:09.270Z,10.75
2018-09-14T13:50:37.472Z,9.05
2018-09-14T13:53:05.673Z,9.30
2018-09-14T13:55:33.890Z,8.18
2018-09-14T13:58:02.113Z,8.60
2018-09-14T14:00:30.353Z,8.70
2018-09-14T14:02:58.572Z,8.80
2018-09-14T14:05:26.836Z,8.25
2018-09-14T14:07:55.064Z,7.90
2018-09-14T14:10:23.389Z,8.78
2018-09-14T14:12:51.549Z,8.90
2018-09-14T14:15:19.762Z,8.70
2018-09-14T14:17:47.978Z,7.78
2018-09-14T14:20:16.174Z,8.45
2018-09-14T14:22:44.490Z,9.13
2018-09-14T14:25:12.697Z,8.30
2018-09-14T14:27:40.999Z,7.85
2018-09-14T14:30:09.215Z,8.13
2018-09-14T14:32:37.437Z,7.87
2018-09-14T14:35:05.652Z,6.75
2018-09-14T14:37:34.104Z,8.38
2018-09-14T14:40:02.949Z,7.65
2018-09-14T14:42:31.405Z,6.97
2018-09-14T14:44:59.625Z,7.67
2018-09-14T14:47:27.831Z,8.00
2018-09-14T14:49:56.740Z,8.20
2018-09-14T14:52:24.940Z,7.28
2018-09-14T14:54:53.144Z,6.85
2018-09-14T14:57:21.353Z,7.30
2018-09-14T14:59:49.595Z,6.80
2018-09-14T15:02:17.780Z,6.90
2018-09-14T15:04:45.965Z,6.37
2018-09-14T15:07:14.155Z,6.50
2018-09-14T15:09:42.407Z,7.30
2018-09-14T15:12:10.624Z,7.42
2018-09-14T15:14:40.806Z,7.25
2018-09-14T15:17:09.058Z,7.45
2018-09-14T15:19:37.246Z,6.15
2018-09-14T15:22:05.490Z,7.37
2018-09-14T15:24:33.735Z,7.30
2018-09-14T15:27:01.926Z,6.42
2018-09-14T15:29:30.111Z,6.20
2018-09-14T15:31:58.345Z,6.65
2018-09-14T15:34:26.534Z,7.25
2018-09-14T15:36:54.790Z,6.83
2018-09-14T15:39:22.995Z,6.65
2018-09-14T15:41:51.215Z,7.00
2018-09-14T15:44:19.406Z,7.25
2018-09-14T15:46:47.615Z,7.03
2018-09-14T15:49:15.851Z,6.70
2018-09-14T15:51:44.028Z,5.60
2018-09-14T15:54:12.240Z,6.33
2018-09-14T15:56:40.527Z,7.03
2018-09-14T15:59:08.754Z,6.00
2018-09-14T16:01:36.956Z,7.37
2018-09-14T16:04:05.163Z,7.37
2018-09-14T16:06:33.384Z,6.55
2018-09-14T16:09:01.622Z,6.05
2018-09-14T16:11:29.800Z,5.87
2018-09-14T16:13:58.808Z,6.47
2018-09-14T16:16:27.040Z,6.45
2018-09-14T16:18:55.364Z,6.15
2018-09-14T16:21:23.519Z,6.72
2018-09-14T16:23:51.735Z,6.28
2018-09-14T16:26:19.976Z,6.42
2018-09-14T16:28:48.307Z,6.70
2018-09-14T16:31:16.512Z,6.67
2018-09-14T16:33:44.740Z,6.72
2018-09-14T16:36:12.964Z,5.55
2018-09-14T16:38:41.200Z,6.62
2018-09-14T16:41:09.399Z,6.35
2018-09-14T16:43:37.615Z,6.25
2018-09-14T16:46:05.881Z,6.05
2018-09-14T16:48:34.102Z,6.40
2018-09-14T16:51:02.298Z,6.42
2018-09-14T16:53:30.505Z,5.92
2018-09-14T16:55:58.859Z,6.62
2018-09-14T16:58:27.091Z,5.70
2018-09-14T17:00:55.288Z,5.80
2018-09-14T17:03:23.514Z,5.65
2018-09-14T17:05:51.718Z,5.37
2018-09-14T17:08:19.968Z,5.30
2018-09-14T17:10:48.165Z,5.78
2018-09-14T17:13:16.391Z,6.05
2018-09-14T17:15:44.605Z,6.37
2018-09-14T17:18:12.802Z,6.35
2018-09-14T17:20:41.034Z,6.50
2018-09-14T17:23:09.265Z,9.20
2018-09-14T17:25:37.476Z,8.30
2018-09-14T17:28:05.774Z,7.08
2018-09-14T17:30:33.993Z,6.58
2018-09-14T17:33:02.220Z,6.40
2018-09-14T17:35:30.511Z,6.40
2018-09-14T17:37:58.673Z,5.83
2018-09-14T17:40:26.906Z,6.30
2018-09-14T17:42:55.100Z,6.70
2018-09-14T17:45:23.317Z,6.55
2018-09-14T17:47:52.992Z,6.72
2018-09-14T17:50:21.210Z,6.17
2018-09-14T17:55:40.068Z,6.37
2018-09-14T17:58:08.275Z,6.95
2018-09-14T18:00:36.646Z,6.78
2018-09-14T18:03:04.838Z,6.70
2018-09-14T18:05:33.065Z,6.42
2018-09-14T18:08:01.261Z,6.35
2018-09-14T18:10:29.499Z,6.53
2018-09-14T18:12:57.712Z,7.25
2018-09-14T18:15:25.920Z,6.50
2018-09-14T18:17:54.140Z,6.67
2018-09-14T18:20:22.352Z,7.30
2018-09-14T18:22:50.555Z,7.67
2018-09-14T18:25:18.783Z,8.15
2018-09-14T18:27:47.149Z,7.60
2018-09-14T18:30:15.234Z,7.97
2018-09-14T18:32:43.410Z,9.43
2018-09-14T18:35:11.606Z,8.75
2018-09-14T18:37:39.799Z,7.80
2018-09-14T18:40:07.996Z,7.25
2018-09-14T18:42:36.200Z,6.95
2018-09-14T18:45:04.479Z,7.42
2018-09-14T18:47:32.672Z,7.85
2018-09-14T18:50:01.092Z,7.33
2018-09-14T18:52:29.374Z,6.33
2018-09-14T18:54:57.578Z,6.55
2018-09-14T18:57:25.772Z,7.28
2018-09-14T18:59:54.005Z,7.30
2018-09-14T19:02:22.236Z,6.25
2018-09-14T19:04:50.444Z,6.72
2018-09-14T19:07:18.938Z,7.33
2018-09-14T19:09:47.158Z,6.87
2018-09-14T19:12:15.410Z,7.45
2018-09-14T19:14:43.599Z,6.72
2018-09-14T19:17:11.787Z,6.92
2018-09-14T19:19:39.985Z,8.25
2018-09-14T19:22:08.179Z,7.03
2018-09-14T19:24:36.402Z,7.33
2018-09-14T19:27:04.579Z,7.37
2018-09-14T19:29:32.766Z,8.15
2018-09-14T19:32:00.961Z,8.03
2018-09-14T19:34:29.126Z,7.83
2018-09-14T19:36:57.421Z,8.30
2018-09-14T19:39:25.627Z,7.55
2018-09-14T19:41:53.828Z,7.85
2018-09-14T19:44:22.010Z,7.03
2018-09-14T19:46:50.199Z,6.75
2018-09-14T19:49:18.415Z,7.30
2018-09-14T19:51:46.618Z,8.08
2018-09-14T19:54:14.803Z,8.38
2018-09-14T19:56:43.010Z,8.38
2018-09-14T19:59:11.247Z,8.48
2018-09-14T20:01:39.440Z,8.68
2018-09-14T20:04:07.633Z,8.40
2018-09-14T20:06:35.828Z,7.78
2018-09-14T20:09:07.420Z,8.73
2018-09-14T20:11:35.653Z,8.58
2018-09-14T20:14:03.886Z,7.90
2018-09-14T20:16:32.080Z,8.18
2018-09-14T20:19:00.269Z,8.60
2018-09-14T20:21:28.486Z,8.28
2018-09-14T20:23:56.788Z,8.60
2018-09-14T20:26:25.003Z,8.58
2018-09-14T20:28:53.271Z,9.33
2018-09-14T20:31:21.452Z,9.10
2018-09-14T20:33:49.650Z,10.05
2018-09-14T20:36:17.910Z,10.05
2018-09-14T20:38:46.111Z,10.53
2018-09-14T20:41:14.364Z,9.90
2018-09-14T20:43:42.937Z,10.10
2018-09-14T20:46:11.178Z,10.88
2018-09-14T20:48:39.634Z,12.25
2018-09-14T20:51:08.134Z,10.72
2018-09-14T20:53:36.380Z,10.40
2018-09-14T20:56:04.611Z,10.78
2018-09-14T20:58:33.161Z,11.28
2018-09-14T21:01:01.731Z,9.83
2018-09-14T21:03:30.023Z,9.58
2018-09-14T21:05:58.225Z,11.20
2018-09-14T21:08:26.412Z,9.88
2018-09-14T21:10:54.841Z,10.30
2018-09-14T21:13:23.047Z,10.53
2018-09-14T21:15:51.244Z,10.20
2018-09-14T21:18:19.462Z,11.00
2018-09-14T21:20:47.655Z,10.13
2018-09-14T21:23:15.876Z,9.78
2018-09-14T21:25:44.856Z,10.78
2018-09-14T21:28:13.210Z,10.58
2018-09-14T21:30:41.752Z,9.48
2018-09-14T21:33:10.005Z,9.90
2018-09-14T21:35:38.212Z,9.35
2018-09-14T21:38:06.452Z,9.15
2018-09-14T21:40:34.704Z,9.83
2018-09-14T21:43:02.822Z,9.73
2018-09-14T21:45:31.052Z,9.40
2018-09-14T21:47:59.268Z,9.10
2018-09-14T21:50:27.458Z,9.10
2018-09-14T21:52:55.642Z,8.65
2018-09-14T21:55:23.849Z,10.03
2018-09-14T21:57:52.138Z,9.43
2018-09-14T22:00:25.832Z,10.00
2018-09-14T22:02:54.019Z,8.78
2018-09-14T22:05:22.283Z,9.20
2018-09-14T22:07:50.460Z,9.58
2018-09-14T22:10:18.703Z,9.53
2018-09-14T22:12:46.891Z,8.65
2018-09-14T22:15:15.374Z,9.08
2018-09-14T22:17:43.572Z,8.65
2018-09-14T22:20:11.805Z,9.30
2018-09-14T22:22:40.012Z,9.08
2018-09-14T22:25:08.215Z,9.35
2018-09-14T22:27:36.393Z,9.03
2018-09-14T22:30:05.339Z,9.00
2018-09-14T22:32:33.528Z,9.30
2018-09-14T22:35:01.747Z,9.28
2018-09-14T22:37:29.927Z,8.90
2018-09-14T22:39:58.128Z,9.53
2018-09-14T22:42:26.360Z,9.38
2018-09-14T22:44:54.543Z,8.85
2018-09-14T22:47:22.739Z,8.55
2018-09-14T22:49:50.984Z,8.88
2018-09-14T22:52:19.199Z,8.40
2018-09-14T22:54:47.420Z,8.75
2018-09-14T22:57:15.604Z,8.35
2018-09-14T22:59:43.797Z,8.58
2018-09-14T23:02:12.012Z,8.48
2018-09-14T23:04:40.188Z,8.35
2018-09-14T23:07:08.380Z,8.43
2018-09-14T23:09:36.565Z,8.23
2018-09-14T23:12:04.990Z,8.33
2018-09-14T23:14:33.211Z,7.65
2018-09-14T23:17:01.411Z,7.45
2018-09-14T23:19:29.594Z,8.25
2018-09-14T23:21:57.810Z,7.22
2018-09-14T23:24:25.994Z,7.65
2018-09-14T23:26:54.194Z,8.08
2018-09-14T23:29:22.387Z,7.45
2018-09-14T23:31:50.625Z,7.87
2018-09-14T23:34:18.814Z,7.87
2018-09-14T23:36:47.027Z,7.03
2018-09-14T23:39:15.230Z,7.03
2018-09-14T23:41:43.431Z,6.80
2018-09-14T23:44:11.639Z,6.65
2018-09-14T23:46:39.828Z,6.87
2018-09-14T23:49:08.012Z,7.03
2018-09-14T23:51:36.205Z,7.35
2018-09-14T23:54:04.389Z,6.62
2018-09-14T23:56:32.592Z,6.90
2018-09-14T23:59:00.784Z,7.47
